sensor_id;sensor_type;location;lat;lon;timestamp;temperature;humidity
18593;DHT22;9426;54.118;17.948;2023-04-16T00:03:11;8.00;99.90
18593;DHT22;9426;54.118;17.948;2023-04-16T00:08:47;7.90;99.90
18593;DHT22;9426;54.118;17.948;2023-04-16T00:14:12;7.90;99.90
18593;DHT22;9426;54.118;17.948;2023-04-16T00:19:36;7.90;99.90
18593;DHT22;9426;54.118;17.948;2023-04-16T00:24:59;7.90;99.90
18593;DHT22;9426;54.118;17.948;2023-04-16T00:30:24;7.80;99.90
18593;DHT22;9426;54.118;17.948;2023-04-16T00:35:50;7.90;99.90
18593;DHT22;9426;54.118;17.948;2023-04-16T00:41:13;7.90;99.90
18593;DHT22;9426;54.118;17.948;2023-04-16T00:46:39;7.90;99.90
18593;DHT22;9426;54.118;17.948;2023-04-16T00:52:03;7.90;99.90
18593;DHT22;9426;54.118;17.948;2023-04-16T00:57:27;7.80;99.90
18593;DHT22;9426;54.118;17.948;2023-04-16T01:02:52;7.80;99.90
18593;DHT22;9426;54.118;17.948;2023-04-16T01:08:17;7.80;99.90
18593;DHT22;9426;54.118;17.948;2023-04-16T01:13:41;7.80;99.90
18593;DHT22;9426;54.118;17.948;2023-04-16T01:19:06;7.70;99.90
18593;DHT22;9426;54.118;17.948;2023-04-16T01:24:33;7.70;99.90
18593;DHT22;9426;54.118;17.948;2023-04-16T01:29:57;7.80;99.90
18593;DHT22;9426;54.118;17.948;2023-04-16T01:35:33;7.70;99.90
18593;DHT22;9426;54.118;17.948;2023-04-16T01:40:58;7.70;99.90
18593;DHT22;9426;54.118;17.948;2023-04-16T01:46:26;7.70;99.90
18593;DHT22;9426;54.118;17.948;2023-04-16T01:51:50;7.70;99.90
18593;DHT22;9426;54.118;17.948;2023-04-16T01:57:15;7.70;99.90
18593;DHT22;9426;54.118;17.948;2023-04-16T02:02:39;7.70;99.90
18593;DHT22;9426;54.118;17.948;2023-04-16T02:08:02;7.60;99.90
18593;DHT22;9426;54.118;17.948;2023-04-16T02:13:28;7.60;99.90
18593;DHT22;9426;54.118;17.948;2023-04-16T02:18:51;7.60;99.90
18593;DHT22;9426;54.118;17.948;2023-04-16T02:24:17;7.60;99.90
18593;DHT22;9426;54.118;17.948;2023-04-16T02:29:41;7.60;99.90
18593;DHT22;9426;54.118;17.948;2023-04-16T02:35:09;7.50;99.90
18593;DHT22;9426;54.118;17.948;2023-04-16T02:40:33;7.50;99.90
18593;DHT22;9426;54.118;17.948;2023-04-16T02:45:58;7.40;99.90
18593;DHT22;9426;54.118;17.948;2023-04-16T02:51:21;7.40;99.90
18593;DHT22;9426;54.118;17.948;2023-04-16T02:56:45;7.40;99.90
18593;DHT22;9426;54.118;17.948;2023-04-16T03:02:09;7.40;99.90
18593;DHT22;9426;54.118;17.948;2023-04-16T03:07:33;7.40;99.90
18593;DHT22;9426;54.118;17.948;2023-04-16T03:12:57;7.40;99.90
18593;DHT22;9426;54.118;17.948;2023-04-16T03:18:21;7.30;99.90
18593;DHT22;9426;54.118;17.948;2023-04-16T03:23:45;7.30;99.90
18593;DHT22;9426;54.118;17.948;2023-04-16T03:29:09;7.30;99.90
18593;DHT22;9426;54.118;17.948;2023-04-16T03:34:34;7.30;99.90
18593;DHT22;9426;54.118;17.948;2023-04-16T03:39:58;7.20;99.90
18593;DHT22;9426;54.118;17.948;2023-04-16T03:45:21;7.20;99.90
18593;DHT22;9426;54.118;17.948;2023-04-16T03:50:47;7.20;99.90
18593;DHT22;9426;54.118;17.948;2023-04-16T03:56:13;7.20;99.90
18593;DHT22;9426;54.118;17.948;2023-04-16T04:01:36;7.20;99.90
18593;DHT22;9426;54.118;17.948;2023-04-16T04:07:02;7.20;99.90
18593;DHT22;9426;54.118;17.948;2023-04-16T04:12:25;7.20;99.90
18593;DHT22;9426;54.118;17.948;2023-04-16T04:17:50;7.20;99.90
18593;DHT22;9426;54.118;17.948;2023-04-16T04:23:15;7.20;99.90
18593;DHT22;9426;54.118;17.948;2023-04-16T04:28:40;7.20;99.90
18593;DHT22;9426;54.118;17.948;2023-04-16T04:34:04;7.20;99.90
18593;DHT22;9426;54.118;17.948;2023-04-16T04:39:29;7.20;99.90
18593;DHT22;9426;54.118;17.948;2023-04-16T04:44:53;7.20;99.90
18593;DHT22;9426;54.118;17.948;2023-04-16T04:50:18;7.30;99.90
18593;DHT22;9426;54.118;17.948;2023-04-16T04:55:43;7.30;99.90
18593;DHT22;9426;54.118;17.948;2023-04-16T05:01:07;7.30;99.90
18593;DHT22;9426;54.118;17.948;2023-04-16T05:06:30;7.40;99.90
18593;DHT22;9426;54.118;17.948;2023-04-16T05:11:55;7.40;99.90
18593;DHT22;9426;54.118;17.948;2023-04-16T05:17:19;7.50;99.90
18593;DHT22;9426;54.118;17.948;2023-04-16T05:22:42;7.50;99.90
18593;DHT22;9426;54.118;17.948;2023-04-16T05:28:08;7.50;99.90
18593;DHT22;9426;54.118;17.948;2023-04-16T05:33:31;7.50;99.90
18593;DHT22;9426;54.118;17.948;2023-04-16T05:38:55;7.50;99.90
18593;DHT22;9426;54.118;17.948;2023-04-16T05:44:20;7.60;99.90
18593;DHT22;9426;54.118;17.948;2023-04-16T05:49:43;7.70;99.90
18593;DHT22;9426;54.118;17.948;2023-04-16T05:55:08;7.70;99.90
18593;DHT22;9426;54.118;17.948;2023-04-16T06:00:33;7.80;99.90
18593;DHT22;9426;54.118;17.948;2023-04-16T06:05:57;7.80;99.90
18593;DHT22;9426;54.118;17.948;2023-04-16T06:11:20;7.90;99.90
18593;DHT22;9426;54.118;17.948;2023-04-16T06:16:45;7.80;99.90
18593;DHT22;9426;54.118;17.948;2023-04-16T06:22:09;7.80;99.90
18593;DHT22;9426;54.118;17.948;2023-04-16T06:27:32;8.00;99.90
18593;DHT22;9426;54.118;17.948;2023-04-16T06:32:57;8.10;99.90
18593;DHT22;9426;54.118;17.948;2023-04-16T06:38:21;8.10;99.90
18593;DHT22;9426;54.118;17.948;2023-04-16T06:43:45;8.00;99.90
18593;DHT22;9426;54.118;17.948;2023-04-16T06:49:10;7.90;99.90
18593;DHT22;9426;54.118;17.948;2023-04-16T06:54:34;7.90;99.90
18593;DHT22;9426;54.118;17.948;2023-04-16T06:59:57;7.80;99.90
18593;DHT22;9426;54.118;17.948;2023-04-16T07:05:22;7.70;99.90
18593;DHT22;9426;54.118;17.948;2023-04-16T07:10:46;7.70;99.90
18593;DHT22;9426;54.118;17.948;2023-04-16T07:16:09;7.80;99.90
18593;DHT22;9426;54.118;17.948;2023-04-16T07:21:34;8.10;99.90
18593;DHT22;9426;54.118;17.948;2023-04-16T07:26:58;8.30;99.90
18593;DHT22;9426;54.118;17.948;2023-04-16T07:32:21;8.70;99.90
18593;DHT22;9426;54.118;17.948;2023-04-16T07:37:46;8.90;99.90
18593;DHT22;9426;54.118;17.948;2023-04-16T07:43:10;8.70;99.90
18593;DHT22;9426;54.118;17.948;2023-04-16T07:48:34;8.40;99.90
18593;DHT22;9426;54.118;17.948;2023-04-16T07:53:59;8.50;99.90
18593;DHT22;9426;54.118;17.948;2023-04-16T07:59:22;8.90;99.90
18593;DHT22;9426;54.118;17.948;2023-04-16T08:04:46;9.00;99.90
18593;DHT22;9426;54.118;17.948;2023-04-16T08:10:11;9.20;99.90
18593;DHT22;9426;54.118;17.948;2023-04-16T08:15:35;9.80;99.90
18593;DHT22;9426;54.118;17.948;2023-04-16T08:20:59;9.70;99.90
18593;DHT22;9426;54.118;17.948;2023-04-16T08:26:24;9.50;99.90
18593;DHT22;9426;54.118;17.948;2023-04-16T08:31:47;9.20;99.90
18593;DHT22;9426;54.118;17.948;2023-04-16T08:37:11;9.00;99.90
18593;DHT22;9426;54.118;17.948;2023-04-16T08:42:40;8.70;99.90
18593;DHT22;9426;54.118;17.948;2023-04-16T08:48:06;8.50;99.90
18593;DHT22;9426;54.118;17.948;2023-04-16T08:53:35;8.70;99.90
18593;DHT22;9426;54.118;17.948;2023-04-16T08:59:05;8.90;99.90
18593;DHT22;9426;54.118;17.948;2023-04-16T09:04:29;9.30;99.90
18593;DHT22;9426;54.118;17.948;2023-04-16T09:09:54;10.00;99.90
18593;DHT22;9426;54.118;17.948;2023-04-16T09:15:21;10.30;99.90
18593;DHT22;9426;54.118;17.948;2023-04-16T09:20:47;10.00;99.90
18593;DHT22;9426;54.118;17.948;2023-04-16T09:26:11;9.70;99.90
18593;DHT22;9426;54.118;17.948;2023-04-16T09:31:36;9.40;99.90
18593;DHT22;9426;54.118;17.948;2023-04-16T09:37:23;9.30;99.90
18593;DHT22;9426;54.118;17.948;2023-04-16T09:42:49;9.50;99.90
18593;DHT22;9426;54.118;17.948;2023-04-16T09:48:14;9.70;99.90
18593;DHT22;9426;54.118;17.948;2023-04-16T09:53:37;10.50;99.90
18593;DHT22;9426;54.118;17.948;2023-04-16T09:59:01;11.10;99.90
18593;DHT22;9426;54.118;17.948;2023-04-16T10:04:26;11.40;99.90
18593;DHT22;9426;54.118;17.948;2023-04-16T10:09:50;11.90;99.90
18593;DHT22;9426;54.118;17.948;2023-04-16T10:15:14;12.60;99.90
18593;DHT22;9426;54.118;17.948;2023-04-16T10:20:40;12.70;99.90
18593;DHT22;9426;54.118;17.948;2023-04-16T10:26:04;12.70;99.90
18593;DHT22;9426;54.118;17.948;2023-04-16T10:31:28;12.60;99.90
18593;DHT22;9426;54.118;17.948;2023-04-16T10:36:54;12.10;99.90
18593;DHT22;9426;54.118;17.948;2023-04-16T10:42:17;11.60;99.90
18593;DHT22;9426;54.118;17.948;2023-04-16T10:47:42;11.60;99.90
18593;DHT22;9426;54.118;17.948;2023-04-16T10:53:23;12.10;99.90
18593;DHT22;9426;54.118;17.948;2023-04-16T10:58:46;12.40;99.90
18593;DHT22;9426;54.118;17.948;2023-04-16T11:04:32;13.30;99.90
18593;DHT22;9426;54.118;17.948;2023-04-16T11:09:58;14.50;99.90
18593;DHT22;9426;54.118;17.948;2023-04-16T11:15:23;14.30;99.90
18593;DHT22;9426;54.118;17.948;2023-04-16T11:20:52;13.30;99.90
18593;DHT22;9426;54.118;17.948;2023-04-16T11:26:27;12.00;99.90
18593;DHT22;9426;54.118;17.948;2023-04-16T11:31:51;11.70;99.90
18593;DHT22;9426;54.118;17.948;2023-04-16T11:37:19;12.00;99.90
18593;DHT22;9426;54.118;17.948;2023-04-16T11:42:44;12.60;99.90
18593;DHT22;9426;54.118;17.948;2023-04-16T11:48:08;13.50;99.90
18593;DHT22;9426;54.118;17.948;2023-04-16T11:53:31;13.50;99.90
18593;DHT22;9426;54.118;17.948;2023-04-16T11:59:12;13.50;99.90
18593;DHT22;9426;54.118;17.948;2023-04-16T12:04:36;14.90;99.90
18593;DHT22;9426;54.118;17.948;2023-04-16T12:10:06;14.50;99.90
18593;DHT22;9426;54.118;17.948;2023-04-16T12:15:44;13.30;99.90
18593;DHT22;9426;54.118;17.948;2023-04-16T12:21:08;12.40;99.90
18593;DHT22;9426;54.118;17.948;2023-04-16T12:26:37;12.10;99.90
18593;DHT22;9426;54.118;17.948;2023-04-16T12:32:02;12.10;99.90
18593;DHT22;9426;54.118;17.948;2023-04-16T12:37:26;12.10;99.90
18593;DHT22;9426;54.118;17.948;2023-04-16T12:42:49;12.30;99.90
18593;DHT22;9426;54.118;17.948;2023-04-16T12:48:14;13.20;99.90
18593;DHT22;9426;54.118;17.948;2023-04-16T12:53:38;14.20;99.90
18593;DHT22;9426;54.118;17.948;2023-04-16T12:59:01;14.30;99.90
18593;DHT22;9426;54.118;17.948;2023-04-16T13:04:26;13.70;99.90
18593;DHT22;9426;54.118;17.948;2023-04-16T13:09:49;13.60;99.90
18593;DHT22;9426;54.118;17.948;2023-04-16T13:15:13;13.70;99.90
18593;DHT22;9426;54.118;17.948;2023-04-16T13:20:38;14.00;99.90
18593;DHT22;9426;54.118;17.948;2023-04-16T13:26:02;14.20;99.90
18593;DHT22;9426;54.118;17.948;2023-04-16T13:31:25;14.40;99.90
18593;DHT22;9426;54.118;17.948;2023-04-16T13:36:50;14.10;99.90
18593;DHT22;9426;54.118;17.948;2023-04-16T13:42:13;13.90;99.90
18593;DHT22;9426;54.118;17.948;2023-04-16T13:47:38;13.40;99.90
18593;DHT22;9426;54.118;17.948;2023-04-16T13:53:03;13.10;99.90
18593;DHT22;9426;54.118;17.948;2023-04-16T13:58:27;12.80;99.90
18593;DHT22;9426;54.118;17.948;2023-04-16T14:03:51;12.60;99.90
18593;DHT22;9426;54.118;17.948;2023-04-16T14:09:17;12.50;99.90
18593;DHT22;9426;54.118;17.948;2023-04-16T14:14:40;12.70;99.90
18593;DHT22;9426;54.118;17.948;2023-04-16T14:20:05;13.30;99.90
18593;DHT22;9426;54.118;17.948;2023-04-16T14:25:30;14.00;99.90
18593;DHT22;9426;54.118;17.948;2023-04-16T14:30:54;14.50;99.90
18593;DHT22;9426;54.118;17.948;2023-04-16T14:36:17;14.50;99.90
18593;DHT22;9426;54.118;17.948;2023-04-16T14:41:42;14.20;99.90
18593;DHT22;9426;54.118;17.948;2023-04-16T14:47:06;13.70;99.90
18593;DHT22;9426;54.118;17.948;2023-04-16T14:52:31;13.70;99.90
18593;DHT22;9426;54.118;17.948;2023-04-16T14:57:56;13.50;99.90
18593;DHT22;9426;54.118;17.948;2023-04-16T15:03:20;13.40;99.90
18593;DHT22;9426;54.118;17.948;2023-04-16T15:08:44;13.50;99.90
18593;DHT22;9426;54.118;17.948;2023-04-16T15:14:10;13.60;99.90
18593;DHT22;9426;54.118;17.948;2023-04-16T15:19:33;13.50;99.90
18593;DHT22;9426;54.118;17.948;2023-04-16T15:24:57;13.20;99.90
18593;DHT22;9426;54.118;17.948;2023-04-16T15:30:22;12.90;99.90
18593;DHT22;9426;54.118;17.948;2023-04-16T15:35:45;12.60;99.90
18593;DHT22;9426;54.118;17.948;2023-04-16T15:41:09;12.50;99.90
18593;DHT22;9426;54.118;17.948;2023-04-16T15:46:34;12.40;99.90
18593;DHT22;9426;54.118;17.948;2023-04-16T15:51:58;12.50;99.90
18593;DHT22;9426;54.118;17.948;2023-04-16T15:57:21;12.50;99.90
18593;DHT22;9426;54.118;17.948;2023-04-16T16:02:46;12.30;99.90
18593;DHT22;9426;54.118;17.948;2023-04-16T16:08:10;12.30;99.90
18593;DHT22;9426;54.118;17.948;2023-04-16T16:13:33;12.30;99.90
18593;DHT22;9426;54.118;17.948;2023-04-16T16:18:59;11.90;99.90
18593;DHT22;9426;54.118;17.948;2023-04-16T16:24:23;11.50;99.90
18593;DHT22;9426;54.118;17.948;2023-04-16T16:29:47;11.10;99.90
18593;DHT22;9426;54.118;17.948;2023-04-16T16:35:13;10.90;99.90
18593;DHT22;9426;54.118;17.948;2023-04-16T16:40:37;10.80;99.90
18593;DHT22;9426;54.118;17.948;2023-04-16T16:46:00;10.50;99.90
18593;DHT22;9426;54.118;17.948;2023-04-16T16:51:25;10.10;99.90
18593;DHT22;9426;54.118;17.948;2023-04-16T16:56:51;10.00;99.90
18593;DHT22;9426;54.118;17.948;2023-04-16T17:02:15;9.90;99.90
18593;DHT22;9426;54.118;17.948;2023-04-16T17:07:41;9.60;99.90
18593;DHT22;9426;54.118;17.948;2023-04-16T17:13:10;9.40;99.90
18593;DHT22;9426;54.118;17.948;2023-04-16T17:18:35;9.10;99.90
18593;DHT22;9426;54.118;17.948;2023-04-16T17:24:00;9.00;99.90
18593;DHT22;9426;54.118;17.948;2023-04-16T17:29:25;8.70;99.90
18593;DHT22;9426;54.118;17.948;2023-04-16T17:34:53;8.50;99.90
18593;DHT22;9426;54.118;17.948;2023-04-16T17:40:28;8.30;99.90
18593;DHT22;9426;54.118;17.948;2023-04-16T17:45:52;8.30;99.90
18593;DHT22;9426;54.118;17.948;2023-04-16T17:51:16;8.10;99.90
18593;DHT22;9426;54.118;17.948;2023-04-16T17:56:42;8.00;99.90
18593;DHT22;9426;54.118;17.948;2023-04-16T18:02:07;7.90;99.90
18593;DHT22;9426;54.118;17.948;2023-04-16T18:07:31;7.80;99.90
18593;DHT22;9426;54.118;17.948;2023-04-16T18:12:57;7.80;99.90
18593;DHT22;9426;54.118;17.948;2023-04-16T18:18:56;7.70;99.90
18593;DHT22;9426;54.118;17.948;2023-04-16T18:25:21;6.80;99.90
18593;DHT22;9426;54.118;17.948;2023-04-16T18:31:13;7.20;99.90
18593;DHT22;9426;54.118;17.948;2023-04-16T18:36:42;7.40;99.90
18593;DHT22;9426;54.118;17.948;2023-04-16T18:42:07;7.30;99.90
18593;DHT22;9426;54.118;17.948;2023-04-16T18:47:32;7.20;99.90
18593;DHT22;9426;54.118;17.948;2023-04-16T18:53:04;7.20;99.90
18593;DHT22;9426;54.118;17.948;2023-04-16T18:58:28;7.30;99.90
18593;DHT22;9426;54.118;17.948;2023-04-16T19:03:53;7.30;99.90
18593;DHT22;9426;54.118;17.948;2023-04-16T19:09:17;7.30;99.90
18593;DHT22;9426;54.118;17.948;2023-04-16T19:14:40;7.30;99.90
18593;DHT22;9426;54.118;17.948;2023-04-16T19:20:07;7.30;99.90
18593;DHT22;9426;54.118;17.948;2023-04-16T19:25:32;7.30;99.90
18593;DHT22;9426;54.118;17.948;2023-04-16T19:30:55;7.20;99.90
18593;DHT22;9426;54.118;17.948;2023-04-16T19:36:20;7.10;99.90
18593;DHT22;9426;54.118;17.948;2023-04-16T19:41:45;7.10;99.90
18593;DHT22;9426;54.118;17.948;2023-04-16T19:47:08;7.00;99.90
18593;DHT22;9426;54.118;17.948;2023-04-16T19:52:33;7.00;99.90
18593;DHT22;9426;54.118;17.948;2023-04-16T19:57:59;7.00;99.90
18593;DHT22;9426;54.118;17.948;2023-04-16T20:03:27;6.90;99.90
18593;DHT22;9426;54.118;17.948;2023-04-16T20:08:52;6.90;99.90
18593;DHT22;9426;54.118;17.948;2023-04-16T20:14:17;6.80;99.90
18593;DHT22;9426;54.118;17.948;2023-04-16T20:19:40;6.80;99.90
18593;DHT22;9426;54.118;17.948;2023-04-16T20:25:09;6.70;99.90
18593;DHT22;9426;54.118;17.948;2023-04-16T20:30:35;6.70;99.90
18593;DHT22;9426;54.118;17.948;2023-04-16T20:36:00;6.70;99.90
18593;DHT22;9426;54.118;17.948;2023-04-16T20:41:25;6.70;99.90
18593;DHT22;9426;54.118;17.948;2023-04-16T20:46:51;6.60;99.90
18593;DHT22;9426;54.118;17.948;2023-04-16T20:52:15;6.60;99.90
18593;DHT22;9426;54.118;17.948;2023-04-16T20:57:40;6.50;99.90
18593;DHT22;9426;54.118;17.948;2023-04-16T21:03:04;6.30;99.90
18593;DHT22;9426;54.118;17.948;2023-04-16T21:08:27;6.20;99.90
18593;DHT22;9426;54.118;17.948;2023-04-16T21:13:52;6.10;99.90
18593;DHT22;9426;54.118;17.948;2023-04-16T21:19:15;6.00;99.90
18593;DHT22;9426;54.118;17.948;2023-04-16T21:24:39;5.80;99.90
18593;DHT22;9426;54.118;17.948;2023-04-16T21:30:05;5.70;99.90
18593;DHT22;9426;54.118;17.948;2023-04-16T21:35:30;5.70;99.90
18593;DHT22;9426;54.118;17.948;2023-04-16T21:40:55;5.60;99.90
18593;DHT22;9426;54.118;17.948;2023-04-16T21:46:20;5.60;99.90
18593;DHT22;9426;54.118;17.948;2023-04-16T21:51:43;5.60;99.90
18593;DHT22;9426;54.118;17.948;2023-04-16T21:57:07;5.60;99.90
18593;DHT22;9426;54.118;17.948;2023-04-16T22:02:31;5.60;99.90
18593;DHT22;9426;54.118;17.948;2023-04-16T22:07:55;5.50;99.90
18593;DHT22;9426;54.118;17.948;2023-04-16T22:13:18;5.50;99.90
18593;DHT22;9426;54.118;17.948;2023-04-16T22:18:45;5.50;99.90
18593;DHT22;9426;54.118;17.948;2023-04-16T22:24:08;5.40;99.90
18593;DHT22;9426;54.118;17.948;2023-04-16T22:29:32;5.40;99.90
18593;DHT22;9426;54.118;17.948;2023-04-16T22:34:57;5.40;99.90
18593;DHT22;9426;54.118;17.948;2023-04-16T22:40:20;5.40;99.90
18593;DHT22;9426;54.118;17.948;2023-04-16T22:45:44;5.40;99.90
18593;DHT22;9426;54.118;17.948;2023-04-16T22:51:09;5.40;99.90
18593;DHT22;9426;54.118;17.948;2023-04-16T22:56:33;5.40;99.90
18593;DHT22;9426;54.118;17.948;2023-04-16T23:01:56;5.30;99.90
18593;DHT22;9426;54.118;17.948;2023-04-16T23:07:46;5.30;99.90
18593;DHT22;9426;54.118;17.948;2023-04-16T23:13:10;5.30;99.90
18593;DHT22;9426;54.118;17.948;2023-04-16T23:18:34;5.20;99.90
18593;DHT22;9426;54.118;17.948;2023-04-16T23:23:58;5.20;99.90
18593;DHT22;9426;54.118;17.948;2023-04-16T23:29:22;5.20;99.90
18593;DHT22;9426;54.118;17.948;2023-04-16T23:34:45;5.20;99.90
18593;DHT22;9426;54.118;17.948;2023-04-16T23:40:11;5.20;99.90
18593;DHT22;9426;54.118;17.948;2023-04-16T23:45:35;5.20;99.90
18593;DHT22;9426;54.118;17.948;2023-04-16T23:50:58;5.20;99.90
18593;DHT22;9426;54.118;17.948;2023-04-16T23:56:23;5.30;99.90
